Time;durP1;ratioP1;P1;durP2;ratioP2;P2;SDS_P1;SDS_P2;PMS_P1;PMS_P2;Temp;Humidity;BMP_temperature;BMP_pressure;BME280_temperature;BME280_humidity;BME280_pressure;Samples;Min_cycle;Max_cycle;Signal;HPM_P1;HPM_P2
2021/01/03 00:00:41;;;;;;;;;;;;;;;4.84;58.11;101298.34;6031887;23;96706;-79
2021/01/03 00:03:07;;;;;;;;;;;;;;;5.53;56.87;101296.25;6031816;23;96835;-80
2021/01/03 00:05:33;;;;;;;;;;;;;;;6.18;54.71;101298.41;6033131;23;98787;-78
2021/01/03 00:08:00;;;;;;;;;;;;;;;6.16;54.69;101296.69;6032869;23;99163;-80
2021/01/03 00:10:26;;;;;;;;;;;;;;;6.33;53.46;101298.28;6031937;23;96683;-79
2021/01/03 00:12:53;;;;;;;;;;;;;;;6.47;53.46;101306.03;6030317;23;97150;-79
2021/01/03 00:15:20;;;;;;;;;;;;;;;6.44;53.12;101316.53;6031258;23;99109;-77
2021/01/03 00:17:46;;;;;;;;;;;;;;;5.37;56.56;101321.69;6031386;23;99202;-79
2021/01/03 00:20:13;;;;;;;;;;;;;;;6.28;53.93;101318.47;6031260;23;97028;-79
2021/01/03 00:22:39;;;;;;;;;;;;;;;6.43;53.41;101319.22;6032229;23;96812;-79
2021/01/03 00:25:06;;;;;;;;;;;;;;;6.78;52.43;101319.69;6031836;23;99209;-79
2021/01/03 00:27:35;;;;;;;;;;;;;;;6.42;53.26;101322.72;6032070;23;99123;-81
2021/01/03 00:30:04;;;;;;;;;;;;;;;6.19;53.71;101315.03;6032320;23;96686;-79
2021/01/03 00:32:29;;;;;;;;;;;;;;;6.03;54.57;101316.06;6033020;23;96831;-79
2021/01/03 00:34:55;;;;;;;;;;;;;;;5.37;56.65;101305.09;6032109;23;97768;-79
2021/01/03 00:37:21;;;;;;;;;;;;;;;5.10;57.49;101306.97;6032050;23;98875;-78
2021/01/03 00:39:48;;;;;;;;;;;;;;;5.32;57.30;101298.97;6032436;23;97179;-79
2021/01/03 00:42:14;;;;;;;;;;;;;;;5.41;56.79;101302.44;6032976;23;96698;-79
2021/01/03 00:44:39;;;;;;;;;;;;;;;5.18;57.32;101299.94;6032934;23;98913;-79
2021/01/03 00:47:06;;;;;;;;;;;;;;;4.92;58.87;101295.69;6033135;23;98810;-78
2021/01/03 00:49:32;;;;;;;;;;;;;;;4.58;59.22;101294.91;6032388;23;96674;-79
2021/01/03 00:51:58;;;;;;;;;;;;;;;5.14;57.88;101276.38;6032821;23;96792;-79
2021/01/03 00:54:25;;;;;;;;;;;;;;;5.08;57.56;101274.66;6032523;23;98884;-79
2021/01/03 00:56:51;;;;;;;;;;;;;;;4.71;59.02;101267.84;6032234;23;98827;-78
2021/01/03 00:59:17;;;;;;;;;;;;;;;4.62;59.34;101270.47;6032363;23;96722;-78
2021/01/03 01:01:43;;;;;;;;;;;;;;;4.85;58.35;101268.66;6032325;23;96824;-78
2021/01/03 01:04:09;;;;;;;;;;;;;;;4.92;58.01;101270.38;6032450;23;98889;-78
2021/01/03 01:06:35;;;;;;;;;;;;;;;4.98;57.29;101256.38;6032198;23;99349;-78
2021/01/03 01:09:01;;;;;;;;;;;;;;;4.62;58.82;101262.63;6031596;23;96704;-78
2021/01/03 01:11:28;;;;;;;;;;;;;;;5.25;57.20;101264.06;6032722;23;96909;-78
2021/01/03 01:13:54;;;;;;;;;;;;;;;5.71;55.79;101271.69;6031440;23;100471;-79
2021/01/03 01:16:20;;;;;;;;;;;;;;;5.67;54.68;101270.81;6032029;23;99668;-78
2021/01/03 01:18:46;;;;;;;;;;;;;;;6.19;53.92;101288.78;6033343;23;97007;-78
2021/01/03 01:21:12;;;;;;;;;;;;;;;6.35;53.08;101286.03;6036113;23;96845;-78
2021/01/03 01:23:38;;;;;;;;;;;;;;;5.74;54.26;101284.75;6033576;23;97810;-78
2021/01/03 01:26:04;;;;;;;;;;;;;;;4.77;57.61;101275.66;6034457;23;98692;-79
2021/01/03 01:28:30;;;;;;;;;;;;;;;5.43;55.25;101286.72;6033381;23;96816;-78
2021/01/03 01:30:55;;;;;;;;;;;;;;;4.56;58.35;101287.06;6033115;23;96841;-78
2021/01/03 01:33:21;;;;;;;;;;;;;;;4.89;58.29;101279.97;6033006;23;98884;-78
2021/01/03 01:35:47;;;;;;;;;;;;;;;5.68;54.66;101284.78;6044623;23;99135;-78
2021/01/03 01:38:14;;;;;;;;;;;;;;;5.14;56.12;101277.25;6047718;23;96564;-77
2021/01/03 01:40:41;;;;;;;;;;;;;;;5.01;57.04;101272.94;6044288;23;96928;-77
2021/01/03 01:43:08;;;;;;;;;;;;;;;5.16;56.67;101266.78;6041866;23;97851;-78
2021/01/03 01:45:34;;;;;;;;;;;;;;;5.92;53.94;101272.41;6039365;23;98789;-78
2021/01/03 01:48:03;;;;;;;;;;;;;;;5.45;54.31;101271.81;6039671;23;96695;-79
2021/01/03 01:50:32;;;;;;;;;;;;;;;4.97;56.38;101263.38;6037441;23;96940;-79
2021/01/03 01:52:59;;;;;;;;;;;;;;;4.65;58.17;101254.78;6035979;23;99152;-78
2021/01/03 01:55:30;;;;;;;;;;;;;;;4.76;57.77;101252.97;6036461;23;102284;-78
2021/01/03 01:57:58;;;;;;;;;;;;;;;4.65;56.80;101252.16;6035923;23;96818;-78
2021/01/03 02:00:26;;;;;;;;;;;;;;;4.83;56.78;101249.47;6034478;23;96766;-78
2021/01/03 02:02:56;;;;;;;;;;;;;;;5.32;55.72;101249.19;6033615;23;98935;-78
2021/01/03 02:05:24;;;;;;;;;;;;;;;5.57;54.81;101246.44;6032984;23;97577;-78
2021/01/03 02:07:54;;;;;;;;;;;;;;;5.21;55.48;101246.66;6032042;23;96696;-79
2021/01/03 02:10:21;;;;;;;;;;;;;;;5.02;55.81;101250.25;6031777;23;96836;-79
2021/01/03 02:12:52;;;;;;;;;;;;;;;5.68;53.61;101248.97;6031257;23;98856;-78
2021/01/03 02:15:19;;;;;;;;;;;;;;;5.52;54.16;101245.56;6031590;23;98851;-78
2021/01/03 02:17:45;;;;;;;;;;;;;;;5.38;54.64;101241.31;6032233;23;96907;-78
2021/01/03 02:20:11;;;;;;;;;;;;;;;5.21;55.47;101231.78;6031787;23;96874;-77
2021/01/03 02:22:39;;;;;;;;;;;;;;;5.80;54.14;101233.13;6032127;23;98954;-78
2021/01/03 02:25:08;;;;;;;;;;;;;;;5.30;54.60;101240.50;6031697;23;98798;-78
2021/01/03 02:27:40;;;;;;;;;;;;;;;5.26;54.90;101228.28;6031865;23;96624;-78
2021/01/03 02:30:07;;;;;;;;;;;;;;;4.91;55.94;101239.84;6032514;23;96757;-78
2021/01/03 02:32:34;;;;;;;;;;;;;;;4.87;55.87;101239.81;6032870;23;98878;-78
2021/01/03 02:35:01;;;;;;;;;;;;;;;5.45;55.14;101237.75;6031413;23;98091;-79
2021/01/03 02:37:30;;;;;;;;;;;;;;;6.05;53.06;101238.19;6032112;23;96712;-78
2021/01/03 02:39:58;;;;;;;;;;;;;;;6.49;51.74;101243.88;6031290;23;96900;-78
2021/01/03 02:42:25;;;;;;;;;;;;;;;5.66;54.12;101244.59;6031265;23;98922;-78
2021/01/03 02:44:51;;;;;;;;;;;;;;;5.39;54.71;101241.28;6031127;23;98971;-78
2021/01/03 02:47:17;;;;;;;;;;;;;;;5.77;53.80;101238.41;6030510;23;97347;-78
2021/01/03 02:49:43;;;;;;;;;;;;;;;5.58;54.20;101244.66;6030386;23;96885;-78
2021/01/03 02:52:11;;;;;;;;;;;;;;;5.89;53.46;101253.22;6029636;23;99255;-79
2021/01/03 02:54:37;;;;;;;;;;;;;;;6.03;52.83;101242.59;6030476;23;98902;-77
2021/01/03 02:57:03;;;;;;;;;;;;;;;5.69;54.20;101229.72;6030482;23;96711;-76
2021/01/03 02:59:30;;;;;;;;;;;;;;;4.82;56.68;101238.13;6032184;23;97218;-77
2021/01/03 03:01:56;;;;;;;;;;;;;;;5.48;54.32;101246.47;6033842;23;98939;-78
2021/01/03 03:04:21;;;;;;;;;;;;;;;6.00;52.79;101239.09;6031071;23;98868;-76
2021/01/03 03:06:47;;;;;;;;;;;;;;;5.59;54.78;101231.53;6031411;23;96699;-77
2021/01/03 03:09:13;;;;;;;;;;;;;;;6.43;51.74;101240.44;6031937;23;96738;-77
2021/01/03 03:11:39;;;;;;;;;;;;;;;5.81;52.97;101244.50;6032893;23;98835;-78
2021/01/03 03:14:05;;;;;;;;;;;;;;;5.32;54.60;101249.19;6032500;23;98962;-77
2021/01/03 03:16:31;;;;;;;;;;;;;;;5.35;54.72;101246.56;6031930;23;96694;-78
2021/01/03 03:18:57;;;;;;;;;;;;;;;5.38;54.68;101234.31;6031673;23;96848;-78
2021/01/03 03:21:23;;;;;;;;;;;;;;;5.54;54.32;101235.94;6031717;23;98882;-78
2021/01/03 03:23:48;;;;;;;;;;;;;;;5.66;53.57;101234.97;6031229;23;98182;-78
2021/01/03 03:26:14;;;;;;;;;;;;;;;5.66;54.61;101224.50;6032107;23;96850;-78
2021/01/03 03:28:40;;;;;;;;;;;;;;;5.77;53.76;101225.31;6031145;23;96701;-79
2021/01/03 03:31:06;;;;;;;;;;;;;;;5.36;54.74;101216.88;6031718;23;98895;-78
2021/01/03 03:33:33;;;;;;;;;;;;;;;4.69;56.96;101215.47;6031598;23;101576;-78
2021/01/03 03:35:58;;;;;;;;;;;;;;;5.53;54.95;101199.25;6031612;23;96765;-78
2021/01/03 03:38:24;;;;;;;;;;;;;;;5.77;53.91;101204.31;6031576;23;97008;-79
2021/01/03 03:40:50;;;;;;;;;;;;;;;5.95;53.09;101206.81;6030894;23;98842;-78
2021/01/03 03:43:16;;;;;;;;;;;;;;;6.03;52.81;101209.38;6032153;23;98778;-78
2021/01/03 03:45:41;;;;;;;;;;;;;;;5.77;53.24;101217.44;6036716;23;96629;-77
2021/01/03 03:48:08;;;;;;;;;;;;;;;5.41;54.83;101218.56;6038711;23;96688;-78
2021/01/03 03:50:34;;;;;;;;;;;;;;;5.51;54.52;101216.78;6036952;23;98946;-78
2021/01/03 03:53:00;;;;;;;;;;;;;;;5.29;54.87;101212.53;6037931;23;98149;-78
2021/01/03 03:55:26;;;;;;;;;;;;;;;5.12;55.69;101216.13;6038862;23;96636;-78
2021/01/03 03:57:52;;;;;;;;;;;;;;;5.17;55.58;101217.00;6034217;23;96811;-78
2021/01/03 04:00:18;;;;;;;;;;;;;;;5.49;54.47;101210.66;6033461;23;99332;-78
2021/01/03 04:02:45;;;;;;;;;;;;;;;5.06;56.02;101208.31;6034018;23;97764;-79
2021/01/03 04:05:12;;;;;;;;;;;;;;;5.62;54.31;101204.44;6034151;23;96703;-78
2021/01/03 04:07:39;;;;;;;;;;;;;;;5.39;54.63;101207.22;6034894;23;96667;-79
2021/01/03 04:10:06;;;;;;;;;;;;;;;5.04;56.49;101211.81;6030995;23;98949;-78
2021/01/03 04:12:32;;;;;;;;;;;;;;;5.34;55.43;101216.00;6030456;23;98205;-78
2021/01/03 04:14:58;;;;;;;;;;;;;;;5.64;54.41;101212.31;6032262;23;96720;-79
2021/01/03 04:17:23;;;;;;;;;;;;;;;5.39;54.52;101216.81;6031007;23;96884;-78
2021/01/03 04:19:49;;;;;;;;;;;;;;;5.30;54.42;101209.03;6031227;23;99094;-78
2021/01/03 04:22:15;;;;;;;;;;;;;;;4.92;56.19;101197.06;6031488;23;101227;-78
2021/01/03 04:24:42;;;;;;;;;;;;;;;4.80;56.72;101192.72;6031367;23;96735;-78
2021/01/03 04:27:09;;;;;;;;;;;;;;;4.69;56.71;101197.16;6031219;23;96850;-77
2021/01/03 04:29:34;;;;;;;;;;;;;;;4.87;56.44;101190.94;6030639;23;99138;-78
2021/01/03 04:32:01;;;;;;;;;;;;;;;5.29;55.27;101194.19;6032320;23;98944;-78
2021/01/03 04:34:27;;;;;;;;;;;;;;;4.98;56.44;101202.25;6033524;23;96721;-77
2021/01/03 04:36:54;;;;;;;;;;;;;;;4.89;56.16;101191.81;6036567;23;96796;-77
2021/01/03 04:39:20;;;;;;;;;;;;;;;5.05;56.17;101190.00;6051343;23;98553;-78
2021/01/03 04:41:48;;;;;;;;;;;;;;;5.39;55.43;101195.84;6053722;23;97809;-77
2021/01/03 04:44:18;;;;;;;;;;;;;;;5.49;54.68;101192.31;6056646;23;96352;-77
2021/01/03 04:46:44;;;;;;;;;;;;;;;5.10;55.65;101199.56;6056399;23;96293;-77
2021/01/03 04:49:15;;;;;;;;;;;;;;;4.93;56.70;101196.16;6049643;23;97859;-78
2021/01/03 04:51:57;;;;;;;;;;;;;;;4.86;56.93;101197.06;6034823;23;97709;-78
2021/01/03 04:54:25;;;;;;;;;;;;;;;5.67;54.47;101189.53;6032827;23;97023;-78
2021/01/03 04:56:53;;;;;;;;;;;;;;;5.38;55.47;101188.91;6031760;23;96864;-78
2021/01/03 04:59:24;;;;;;;;;;;;;;;5.98;53.39;101191.03;6032060;23;98877;-78
2021/01/03 05:02:19;;;;;;;;;;;;;;;5.51;54.58;101191.41;6033105;23;98855;-77
2021/01/03 05:04:49;;;;;;;;;;;;;;;5.87;53.56;101182.41;6033609;23;96672;-78
2021/01/03 05:07:17;;;;;;;;;;;;;;;5.27;55.37;101188.09;6046975;23;96789;-78
2021/01/03 05:09:43;;;;;;;;;;;;;;;5.42;54.88;101186.25;6048166;23;98143;-77
2021/01/03 05:12:16;;;;;;;;;;;;;;;5.52;55.26;101181.78;6047801;23;100942;-78
2021/01/03 05:14:43;;;;;;;;;;;;;;;5.55;55.92;101181.78;6051608;23;96567;-77
2021/01/03 05:17:09;;;;;;;;;;;;;;;5.44;55.56;101171.38;6051217;23;96819;-77
2021/01/03 05:19:35;;;;;;;;;;;;;;;5.41;56.46;101167.91;6035349;23;98907;-77
2021/01/03 05:22:01;;;;;;;;;;;;;;;5.07;57.03;101172.50;6033470;23;99291;-77
2021/01/03 05:24:28;;;;;;;;;;;;;;;5.69;56.21;101166.81;6034437;23;96647;-77
2021/01/03 05:26:53;;;;;;;;;;;;;;;5.38;56.44;101171.41;6033615;23;96805;-77
2021/01/03 05:29:24;;;;;;;;;;;;;;;5.10;58.12;101162.88;6032219;23;99076;-77
2021/01/03 05:31:57;;;;;;;;;;;;;;;5.40;57.87;101168.78;6032160;23;99254;-77
2021/01/03 05:34:30;;;;;;;;;;;;;;;4.91;58.37;101168.25;6032910;23;96728;-77
2021/01/03 05:37:01;;;;;;;;;;;;;;;4.54;59.90;101163.19;6032802;23;96702;-77
2021/01/03 05:39:29;;;;;;;;;;;;;;;4.24;61.28;101165.91;6032636;23;98949;-77
2021/01/03 05:42:01;;;;;;;;;;;;;;;4.48;61.02;101164.94;6031314;23;99282;-77
2021/01/03 05:44:29;;;;;;;;;;;;;;;5.53;59.72;101165.19;6032803;23;96875;-78
2021/01/03 05:47:02;;;;;;;;;;;;;;;5.67;57.87;101165.06;6032203;23;96902;-78
2021/01/03 05:49:40;;;;;;;;;;;;;;;4.80;59.68;101165.66;6033136;23;98129;-78
2021/01/03 05:52:10;;;;;;;;;;;;;;;4.97;60.01;101162.97;6031587;23;100976;-78
2021/01/03 05:54:37;;;;;;;;;;;;;;;5.35;58.65;101160.97;6031718;23;96846;-78
2021/01/03 05:57:05;;;;;;;;;;;;;;;5.67;57.87;101154.56;6031542;23;96849;-77
2021/01/03 05:59:34;;;;;;;;;;;;;;;5.02;59.45;101156.81;6031794;23;100280;-78
2021/01/03 06:02:07;;;;;;;;;;;;;;;5.30;59.85;101147.03;6032147;23;98791;-78
2021/01/03 06:04:33;;;;;;;;;;;;;;;4.82;60.55;101156.06;6032621;23;96693;-78
2021/01/03 06:07:02;;;;;;;;;;;;;;;5.01;60.60;101147.22;6032583;23;96823;-78
2021/01/03 06:09:33;;;;;;;;;;;;;;;4.26;62.87;101151.97;6031928;23;99326;-78
2021/01/03 06:11:59;;;;;;;;;;;;;;;4.75;61.03;101154.34;6032035;23;98948;-78
2021/01/03 06:14:26;;;;;;;;;;;;;;;4.80;61.02;101149.97;6032441;23;97115;-77
2021/01/03 06:16:58;;;;;;;;;;;;;;;4.60;61.33;101159.66;6032668;23;96772;-77
2021/01/03 06:19:29;;;;;;;;;;;;;;;4.43;62.26;101153.66;6033857;23;99263;-77
2021/01/03 06:21:55;;;;;;;;;;;;;;;4.43;62.56;101153.66;6034380;23;97921;-78
2021/01/03 06:24:23;;;;;;;;;;;;;;;4.58;61.66;101149.22;6032965;23;96676;-78
2021/01/03 06:26:51;;;;;;;;;;;;;;;4.25;64.52;101146.75;6033401;23;96793;-78
2021/01/03 06:29:20;;;;;;;;;;;;;;;4.41;63.20;101145.78;6031941;23;99354;-78
2021/01/03 06:32:04;;;;;;;;;;;;;;;4.74;63.62;101142.16;6029764;23;99109;-78
2021/01/03 06:34:39;;;;;;;;;;;;;;;4.78;62.75;101138.66;6032246;23;96657;-79
2021/01/03 06:37:08;;;;;;;;;;;;;;;4.60;62.73;101144.84;6033417;23;96925;-80
2021/01/03 06:39:46;;;;;;;;;;;;;;;4.90;62.22;101143.81;6032655;23;99030;-78
2021/01/03 06:42:29;;;;;;;;;;;;;;;4.84;62.47;101138.63;6033873;23;98941;-78
2021/01/03 06:45:15;;;;;;;;;;;;;;;3.91;64.94;101135.50;6034365;23;97077;-78
2021/01/03 06:48:11;;;;;;;;;;;;;;;3.89;65.85;101135.50;6032943;23;97133;-78
2021/01/03 06:50:56;;;;;;;;;;;;;;;4.77;62.24;101143.00;6034640;23;97785;-78
2021/01/03 06:53:31;;;;;;;;;;;;;;;4.80;62.19;101139.50;6033466;23;99250;-78
2021/01/03 06:56:24;;;;;;;;;;;;;;;4.55;63.39;101130.03;6036969;23;97327;-77
2021/01/03 06:59:09;;;;;;;;;;;;;;;4.80;62.53;101132.50;5970233;23;96936;-79
2021/01/03 07:01:35;;;;;;;;;;;;;;;4.91;62.36;101136.81;6041764;23;99321;-78
2021/01/03 07:04:08;;;;;;;;;;;;;;;4.48;62.93;101128.31;6050048;23;97656;-78
2021/01/03 07:06:36;;;;;;;;;;;;;;;5.13;61.83;101136.66;6051008;23;96678;-79
2021/01/03 07:09:04;;;;;;;;;;;;;;;4.47;63.61;101137.03;6051170;23;96566;-79
2021/01/03 07:11:42;;;;;;;;;;;;;;;4.61;63.33;101132.63;6052113;23;97844;-79
2021/01/03 07:14:09;;;;;;;;;;;;;;;4.53;63.00;101135.25;6039545;23;98869;-78
2021/01/03 07:19:36;;;;;;;;;;;;;;;4.95;60.95;101136.78;6015984;23;96681;-78
2021/01/03 07:22:06;;;;;;;;;;;;;;;5.13;61.04;101139.28;6033689;23;98987;-79
2021/01/03 07:24:34;;;;;;;;;;;;;;;5.11;61.21;101135.81;6032873;23;99471;-78
2021/01/03 07:27:13;;;;;;;;;;;;;;;4.86;62.29;101139.44;6032611;23;96688;-78
2021/01/03 07:29:49;;;;;;;;;;;;;;;5.16;61.73;101149.75;6032111;23;96668;-79
2021/01/03 07:32:15;;;;;;;;;;;;;;;5.33;61.20;101146.13;6032356;23;97910;-79
2021/01/03 07:34:41;;;;;;;;;;;;;;;4.53;62.94;101142.28;6031028;23;97969;-78
2021/01/03 07:37:17;;;;;;;;;;;;;;;4.64;63.09;101145.69;6032961;23;96671;-79
2021/01/03 07:39:57;;;;;;;;;;;;;;;5.27;61.68;101139.19;6031599;23;96762;-79
2021/01/03 07:42:24;;;;;;;;;;;;;;;4.92;62.28;101139.44;6032656;23;99105;-78
2021/01/03 07:44:51;;;;;;;;;;;;;;;5.20;61.84;101133.13;6032201;23;98861;-79
2021/01/03 07:47:50;;;;;;;;;;;;;;;4.79;63.04;101138.63;6033426;23;96788;-79
2021/01/03 07:50:37;;;;;;;;;;;;;;;4.97;61.97;101137.66;5943579;23;96913;-77
2021/01/03 07:53:18;;;;;;;;;;;;;;;4.50;64.20;101139.66;5933929;23;99276;-78
2021/01/03 07:55:44;;;;;;;;;;;;;;;6.00;59.99;101141.16;5999696;23;98943;-78
2021/01/03 07:58:11;;;;;;;;;;;;;;;5.90;59.68;101140.41;6033131;23;96874;-77
2021/01/03 08:00:38;;;;;;;;;;;;;;;4.99;61.77;101145.50;6032083;23;96840;-78
2021/01/03 08:03:05;;;;;;;;;;;;;;;4.59;64.41;101150.97;6031585;23;98950;-78
2021/01/03 08:05:31;;;;;;;;;;;;;;;4.32;64.69;101154.56;6031726;23;99139;-78
2021/01/03 08:08:01;;;;;;;;;;;;;;;5.25;63.41;101150.56;6032088;23;97002;-79
2021/01/03 08:10:28;;;;;;;;;;;;;;;5.41;61.98;101160.91;6031631;23;96849;-78
2021/01/03 08:12:59;;;;;;;;;;;;;;;4.69;63.83;101155.28;6030814;23;97590;-78
2021/01/03 08:15:26;;;;;;;;;;;;;;;4.92;63.78;101156.91;6031851;23;98966;-78
2021/01/03 08:17:58;;;;;;;;;;;;;;;5.48;62.71;101151.25;6035243;23;96610;-78
2021/01/03 08:20:25;;;;;;;;;;;;;;;5.54;61.99;101159.06;6038401;23;96790;-78
2021/01/03 08:22:51;;;;;;;;;;;;;;;5.73;61.27;101165.88;6037765;23;97723;-79
2021/01/03 08:25:18;;;;;;;;;;;;;;;5.14;62.48;101161.97;6035230;23;98757;-78
2021/01/03 08:27:51;;;;;;;;;;;;;;;5.18;63.05;101154.97;6034261;23;97321;-78
2021/01/03 08:30:20;;;;;;;;;;;;;;;5.34;63.63;101151.34;6038911;23;97043;-78
2021/01/03 08:32:46;;;;;;;;;;;;;;;5.18;62.38;101153.25;6037606;23;98186;-79
2021/01/03 08:35:13;;;;;;;;;;;;;;;5.22;63.82;101149.69;6039180;23;98716;-78
2021/01/03 08:37:41;;;;;;;;;;;;;;;5.64;61.43;101150.25;6034553;23;96694;-78
2021/01/03 08:40:12;;;;;;;;;;;;;;;5.90;60.75;101145.66;6032734;23;96838;-78
2021/01/03 08:42:41;;;;;;;;;;;;;;;5.86;61.59;101146.53;6033660;23;99523;-80
2021/01/03 08:45:13;;;;;;;;;;;;;;;6.17;59.93;101151.50;6034036;23;98856;-79
2021/01/03 08:47:40;;;;;;;;;;;;;;;5.55;61.44;101153.81;6029862;23;96926;-78
2021/01/03 08:50:09;;;;;;;;;;;;;;;5.94;61.31;101139.47;6029507;23;97194;-78
2021/01/03 08:52:34;;;;;;;;;;;;;;;6.50;59.08;101137.94;6027980;23;97394;-79
2021/01/03 08:55:06;;;;;;;;;;;;;;;4.70;62.96;101149.16;6029279;23;98741;-79
2021/01/03 08:57:31;;;;;;;;;;;;;;;5.03;63.92;101148.09;6030722;23;97172;-79
2021/01/03 08:59:57;;;;;;;;;;;;;;;4.77;64.43;101144.75;6028803;23;97614;-81
2021/01/03 09:02:25;;;;;;;;;;;;;;;5.91;63.52;101141.25;6029340;23;102048;-80
2021/01/03 09:05:01;;;;;;;;;;;;;;;6.13;61.04;101142.78;6029229;23;99692;-79
2021/01/03 09:07:28;;;;;;;;;;;;;;;5.11;63.41;101146.31;6028199;23;97183;-79
2021/01/03 09:09:54;;;;;;;;;;;;;;;5.35;62.04;101157.47;6026588;23;97469;-79
2021/01/03 09:12:33;;;;;;;;;;;;;;;4.73;64.03;101146.50;6027628;23;100832;-79
2021/01/03 09:15:00;;;;;;;;;;;;;;;4.41;65.52;101145.78;6027276;23;99192;-79
2021/01/03 09:17:30;;;;;;;;;;;;;;;4.24;66.86;101153.72;6027364;23;97352;-79
2021/01/03 09:20:01;;;;;;;;;;;;;;;4.49;65.39;101154.47;6026765;23;97257;-79
2021/01/03 09:22:29;;;;;;;;;;;;;;;5.20;63.54;101150.59;6027068;23;98177;-78
2021/01/03 09:24:59;;;;;;;;;;;;;;;4.71;65.00;101152.66;6027304;23;98804;-79
2021/01/03 09:27:27;;;;;;;;;;;;;;;4.97;64.53;101153.38;6029253;23;96937;-79
2021/01/03 09:30:05;;;;;;;;;;;;;;;4.72;65.82;101152.66;6027981;23;97107;-79
2021/01/03 09:32:32;;;;;;;;;;;;;;;4.59;65.30;101155.34;6030827;23;99246;-79
2021/01/03 09:35:06;;;;;;;;;;;;;;;4.63;65.85;101159.66;6031702;23;98780;-79
2021/01/03 09:37:34;;;;;;;;;;;;;;;4.70;66.24;101143.91;6031057;23;96733;-79
2021/01/03 09:40:07;;;;;;;;;;;;;;;4.68;65.44;101152.66;6029803;23;97327;-80
2021/01/03 09:42:35;;;;;;;;;;;;;;;5.13;64.19;101149.75;6033999;23;99272;-80
2021/01/03 09:45:22;;;;;;;;;;;;;;;4.92;64.20;101157.78;6033805;23;99375;-79
2021/01/03 09:47:49;;;;;;;;;;;;;;;5.61;62.35;101158.13;6037923;23;96684;-80
2021/01/03 09:50:17;;;;;;;;;;;;;;;5.67;61.60;101149.34;6034992;23;96911;-81
2021/01/03 09:52:46;;;;;;;;;;;;;;;5.41;64.12;101150.44;6040095;23;99542;-82
2021/01/03 09:55:18;;;;;;;;;;;;;;;4.94;64.44;101149.88;6038585;23;99900;-81
2021/01/03 09:57:47;;;;;;;;;;;;;;;4.83;65.17;101144.72;6042732;23;96693;-83
2021/01/03 10:00:18;;;;;;;;;;;;;;;4.74;65.32;101144.75;6040260;23;96854;-80
2021/01/03 10:02:44;;;;;;;;;;;;;;;4.59;65.90;101142.25;6048980;23;102048;-80
2021/01/03 10:05:21;;;;;;;;;;;;;;;4.93;66.37;101148.13;6041545;23;98065;-81
2021/01/03 10:07:55;;;;;;;;;;;;;;;5.12;64.57;101148.00;6039484;23;96744;-83
2021/01/03 10:10:21;;;;;;;;;;;;;;;6.13;62.54;101141.91;6042639;23;96868;-80
2021/01/03 10:12:49;;;;;;;;;;;;;;;5.94;61.39;101142.09;6039268;23;98150;-83
2021/01/03 10:15:25;;;;;;;;;;;;;;;5.53;62.91;101149.44;6036029;23;100604;-80
2021/01/03 10:17:55;;;;;;;;;;;;;;;5.06;63.44;101158.53;6034547;23;96858;-80
2021/01/03 10:20:41;;;;;;;;;;;;;;;4.63;65.66;101155.31;6039930;23;97265;-81
2021/01/03 10:23:09;;;;;;;;;;;;;;;4.99;64.20;101148.97;6036698;23;101240;-80
2021/01/03 10:25:34;;;;;;;;;;;;;;;4.51;65.68;101142.28;6032698;23;99518;-80
2021/01/03 10:28:16;;;;;;;;;;;;;;;5.06;64.86;101142.81;6037734;23;96733;-82
2021/01/03 10:30:42;;;;;;;;;;;;;;;5.87;62.57;101129.94;6037324;23;96666;-81
2021/01/03 10:33:11;;;;;;;;;;;;;;;5.79;61.38;101131.72;6034638;23;96999;-82
2021/01/03 10:35:37;;;;;;;;;;;;;;;5.60;61.37;101125.78;6035086;23;99898;-82
2021/01/03 10:38:04;;;;;;;;;;;;;;;5.21;63.63;101127.00;6032492;23;96623;-81
2021/01/03 10:40:47;;;;;;;;;;;;;;;5.25;63.15;101121.75;6034132;23;97451;-84
2021/01/03 10:43:13;;;;;;;;;;;;;;;5.90;61.23;101123.81;6029866;23;100523;-80
2021/01/03 10:45:51;;;;;;;;;;;;;;;6.46;58.87;101109.13;6029904;23;97774;-80
2021/01/03 10:48:17;;;;;;;;;;;;;;;5.73;61.10;101113.44;6032215;23;96629;-82
2021/01/03 10:50:43;;;;;;;;;;;;;;;5.99;61.01;101111.44;6031145;23;96884;-77
2021/01/03 10:53:09;;;;;;;;;;;;;;;5.78;61.60;101116.88;6023581;23;98088;-82
2021/01/03 10:55:36;;;;;;;;;;;;;;;5.19;62.49;101113.03;6025926;23;98663;-82
2021/01/03 10:58:02;;;;;;;;;;;;;;;5.60;61.67;101111.81;6027639;23;97478;-80
2021/01/03 11:00:28;;;;;;;;;;;;;;;5.04;64.45;101113.16;6026947;23;97776;-81
2021/01/03 11:02:54;;;;;;;;;;;;;;;5.20;64.25;101106.91;6029190;23;98967;-82
2021/01/03 11:05:20;;;;;;;;;;;;;;;5.93;61.42;101108.03;6029515;23;99023;-80
2021/01/03 11:07:50;;;;;;;;;;;;;;;5.59;62.80;101107.44;6030360;23;97226;-78
2021/01/03 11:10:16;;;;;;;;;;;;;;;5.78;61.12;101110.75;6031952;23;97100;-79
2021/01/03 11:12:42;;;;;;;;;;;;;;;5.67;62.89;101105.63;6036181;23;101146;-80
2021/01/03 11:15:10;;;;;;;;;;;;;;;5.88;61.98;101105.44;6037576;23;96905;-79
2021/01/03 11:17:36;;;;;;;;;;;;;;;5.46;63.09;101098.84;6040177;23;97701;-81
2021/01/03 11:20:03;;;;;;;;;;;;;;;5.25;63.27;101098.16;6046532;23;96836;-80
2021/01/03 11:22:28;;;;;;;;;;;;;;;5.22;63.61;101099.91;6043310;23;99290;-80
2021/01/03 11:24:54;;;;;;;;;;;;;;;4.74;65.24;101089.78;6042241;23;98880;-80
2021/01/03 11:27:21;;;;;;;;;;;;;;;4.40;66.87;101094.34;5994047;23;1328028;-80
2021/01/03 11:32:46;;;;;;;;;;;;;;;4.95;64.27;101100.13;6038324;23;99822;-81
2021/01/03 11:35:13;;;;;;;;;;;;;;;5.70;62.11;101096.88;6034416;23;97773;-80
2021/01/03 11:37:39;;;;;;;;;;;;;;;5.78;62.64;101098.50;6047479;23;96580;-80
2021/01/03 11:40:06;;;;;;;;;;;;;;;6.52;59.96;101094.19;6030869;23;97812;-79
2021/01/03 11:42:32;;;;;;;;;;;;;;;6.68;58.95;101082.59;6008067;23;99611;-80
2021/01/03 11:44:58;;;;;;;;;;;;;;;5.78;61.65;101082.78;6034240;23;97794;-82
2021/01/03 11:47:25;;;;;;;;;;;;;;;6.29;60.62;101080.50;6034265;23;96694;-82
2021/01/03 11:49:52;;;;;;;;;;;;;;;5.97;60.93;101083.50;6035018;23;96690;-82
2021/01/03 11:52:17;;;;;;;;;;;;;;;6.13;60.18;101084.19;6032892;23;99147;-81
2021/01/03 11:54:43;;;;;;;;;;;;;;;5.90;60.59;101085.34;6031379;23;98891;-79
2021/01/03 11:57:10;;;;;;;;;;;;;;;5.12;63.66;101086.91;6033966;23;96993;-80
2021/01/03 11:59:36;;;;;;;;;;;;;;;5.82;62.13;101084.50;6032872;23;97112;-81
2021/01/03 12:02:04;;;;;;;;;;;;;;;5.61;62.14;101084.72;6033747;23;100869;-80
2021/01/03 12:04:30;;;;;;;;;;;;;;;5.30;63.83;101084.16;6033052;23;99338;-80
2021/01/03 12:06:57;;;;;;;;;;;;;;;5.50;63.80;101087.47;6033598;23;97016;-79
2021/01/03 12:09:23;;;;;;;;;;;;;;;5.47;63.19;101081.34;6031506;23;96881;-81
2021/01/03 12:11:52;;;;;;;;;;;;;;;6.27;61.19;101082.25;6037183;23;99008;-81
2021/01/03 12:14:21;;;;;;;;;;;;;;;6.37;60.45;101081.25;6045619;23;97919;-81
2021/01/03 12:16:52;;;;;;;;;;;;;;;6.04;61.20;101079.06;6046843;23;96817;-81
2021/01/03 12:19:18;;;;;;;;;;;;;;;5.74;61.79;101086.34;6048032;23;96499;-80
2021/01/03 12:21:44;;;;;;;;;;;;;;;5.64;61.75;101087.31;6050454;23;97795;-80
2021/01/03 12:24:11;;;;;;;;;;;;;;;5.28;63.66;101085.03;6045093;23;100371;-81
2021/01/03 12:26:38;;;;;;;;;;;;;;;5.63;63.48;101084.72;6039211;23;96827;-81
2021/01/03 12:29:04;;;;;;;;;;;;;;;6.19;61.07;101086.72;6039348;23;97263;-80
2021/01/03 12:31:33;;;;;;;;;;;;;;;6.15;60.67;101078.03;6040246;23;97798;-80
2021/01/03 12:33:59;;;;;;;;;;;;;;;5.89;60.98;101086.22;6038010;23;96824;-79
2021/01/03 12:36:25;;;;;;;;;;;;;;;5.62;62.14;101086.47;6036124;23;96981;-81
2021/01/03 12:38:51;;;;;;;;;;;;;;;5.76;62.40;101087.19;6033624;23;96803;-81
2021/01/03 12:41:18;;;;;;;;;;;;;;;5.69;63.35;101085.53;6034448;23;97819;-81
2021/01/03 12:43:46;;;;;;;;;;;;;;;5.91;62.22;101079.19;6032508;23;98748;-80
2021/01/03 12:46:11;;;;;;;;;;;;;;;5.50;63.35;101086.59;6033163;23;96763;-80
2021/01/03 12:48:37;;;;;;;;;;;;;;;5.72;63.34;101085.47;6032768;23;97238;-81
2021/01/03 12:51:03;;;;;;;;;;;;;;;5.80;62.52;101091.50;6032936;23;99246;-81
2021/01/03 12:53:29;;;;;;;;;;;;;;;6.17;61.39;101088.53;6033361;23;99084;-80
2021/01/03 12:55:55;;;;;;;;;;;;;;;5.64;62.66;101102.19;6036644;23;96638;-81
2021/01/03 12:58:21;;;;;;;;;;;;;;;5.97;61.06;101091.38;6040098;23;96802;-81